sensor_id;sensor_type;location;lat;lon;timestamp;pressure;altitude;pressure_sealevel;temperature;humidity
63306;BME280;50735;52.060;1.248;2022-11-28T00:00:44;100545.99;;;9.42;63.16
63306;BME280;50735;52.060;1.248;2022-11-28T00:03:10;100544.23;;;9.85;62.92
63306;BME280;50735;52.060;1.248;2022-11-28T00:05:37;100545.25;;;9.56;63.17
63306;BME280;50735;52.060;1.248;2022-11-28T00:08:04;100548.71;;;9.79;63.09
63306;BME280;50735;52.060;1.248;2022-11-28T00:10:31;100553.21;;;9.53;63.24
63306;BME280;50735;52.060;1.248;2022-11-28T00:12:57;100550.60;;;9.38;63.19
63306;BME280;50735;52.060;1.248;2022-11-28T00:15:24;100551.90;;;9.74;63.23
63306;BME280;50735;52.060;1.248;2022-11-28T00:17:51;100546.90;;;9.55;63.19
63306;BME280;50735;52.060;1.248;2022-11-28T00:20:18;100541.84;;;9.57;63.24
63306;BME280;50735;52.060;1.248;2022-11-28T00:22:45;100542.97;;;9.61;63.02
63306;BME280;50735;52.060;1.248;2022-11-28T00:25:12;100547.94;;;9.64;63.30
63306;BME280;50735;52.060;1.248;2022-11-28T00:27:39;100544.95;;;9.56;63.88
63306;BME280;50735;52.060;1.248;2022-11-28T00:30:07;100540.93;;;9.56;63.65
63306;BME280;50735;52.060;1.248;2022-11-28T00:32:34;100540.74;;;9.63;63.36
63306;BME280;50735;52.060;1.248;2022-11-28T00:35:01;100540.72;;;9.65;63.34
63306;BME280;50735;52.060;1.248;2022-11-28T00:37:27;100540.88;;;9.50;64.14
63306;BME280;50735;52.060;1.248;2022-11-28T00:39:54;100536.17;;;9.53;63.82
63306;BME280;50735;52.060;1.248;2022-11-28T00:42:21;100538.83;;;9.64;63.58
63306;BME280;50735;52.060;1.248;2022-11-28T00:44:48;100542.70;;;9.47;63.95
63306;BME280;50735;52.060;1.248;2022-11-28T00:47:15;100542.99;;;9.61;64.14
63306;BME280;50735;52.060;1.248;2022-11-28T00:49:43;100546.04;;;9.44;63.87
63306;BME280;50735;52.060;1.248;2022-11-28T00:52:10;100545.88;;;9.36;64.05
63306;BME280;50735;52.060;1.248;2022-11-28T00:54:37;100547.05;;;9.51;63.69
63306;BME280;50735;52.060;1.248;2022-11-28T00:57:04;100547.19;;;9.40;63.82
63306;BME280;50735;52.060;1.248;2022-11-28T00:59:31;100547.71;;;9.57;63.65
63306;BME280;50735;52.060;1.248;2022-11-28T01:01:57;100547.44;;;9.57;63.50
63306;BME280;50735;52.060;1.248;2022-11-28T01:04:24;100544.33;;;9.46;63.57
63306;BME280;50735;52.060;1.248;2022-11-28T01:06:51;100546.35;;;9.34;63.54
63306;BME280;50735;52.060;1.248;2022-11-28T01:09:20;100546.12;;;9.31;64.13
63306;BME280;50735;52.060;1.248;2022-11-28T01:11:49;100544.04;;;9.15;64.40
63306;BME280;50735;52.060;1.248;2022-11-28T01:14:18;100541.83;;;9.02;64.67
63306;BME280;50735;52.060;1.248;2022-11-28T01:16:46;100541.03;;;8.96;64.72
63306;BME280;50735;52.060;1.248;2022-11-28T01:19:12;100541.67;;;8.90;64.95
63306;BME280;50735;52.060;1.248;2022-11-28T01:21:40;100547.44;;;8.53;65.09
63306;BME280;50735;52.060;1.248;2022-11-28T01:24:07;100537.17;;;8.39;65.48
63306;BME280;50735;52.060;1.248;2022-11-28T01:26:34;100532.78;;;8.71;64.94
63306;BME280;50735;52.060;1.248;2022-11-28T01:29:03;100529.04;;;8.95;64.46
63306;BME280;50735;52.060;1.248;2022-11-28T01:31:30;100531.76;;;9.18;64.06
63306;BME280;50735;52.060;1.248;2022-11-28T01:33:57;100533.01;;;8.73;64.23
63306;BME280;50735;52.060;1.248;2022-11-28T01:36:25;100530.03;;;8.61;64.50
63306;BME280;50735;52.060;1.248;2022-11-28T01:38:52;100526.06;;;9.03;63.94
63306;BME280;50735;52.060;1.248;2022-11-28T01:41:22;100518.69;;;9.29;63.33
63306;BME280;50735;52.060;1.248;2022-11-28T01:44:00;100516.19;;;9.15;62.90
63306;BME280;50735;52.060;1.248;2022-11-28T01:46:29;100513.50;;;9.46;62.77
63306;BME280;50735;52.060;1.248;2022-11-28T01:48:59;100514.46;;;9.28;62.35
63306;BME280;50735;52.060;1.248;2022-11-28T01:51:28;100514.22;;;9.14;62.31
63306;BME280;50735;52.060;1.248;2022-11-28T01:53:55;100513.15;;;9.13;62.25
63306;BME280;50735;52.060;1.248;2022-11-28T01:56:25;100508.49;;;9.28;62.64
63306;BME280;50735;52.060;1.248;2022-11-28T01:58:56;100508.08;;;9.46;62.42
63306;BME280;50735;52.060;1.248;2022-11-28T02:01:24;100500.62;;;9.56;62.17
63306;BME280;50735;52.060;1.248;2022-11-28T02:03:52;100495.90;;;9.33;61.76
63306;BME280;50735;52.060;1.248;2022-11-28T02:06:23;100491.45;;;9.39;61.74
63306;BME280;50735;52.060;1.248;2022-11-28T02:08:50;100492.08;;;9.48;61.41
63306;BME280;50735;52.060;1.248;2022-11-28T02:11:43;100492.46;;;9.52;61.54
63306;BME280;50735;52.060;1.248;2022-11-28T02:14:26;100489.21;;;9.53;61.41
63306;BME280;50735;52.060;1.248;2022-11-28T02:17:08;100484.77;;;9.32;61.24
63306;BME280;50735;52.060;1.248;2022-11-28T02:22:11;100483.85;;;9.90;61.11
63306;BME280;50735;52.060;1.248;2022-11-28T02:24:58;100490.73;;;9.46;61.01
63306;BME280;50735;52.060;1.248;2022-11-28T02:27:39;100493.31;;;9.59;60.76
63306;BME280;50735;52.060;1.248;2022-11-28T02:30:15;100491.90;;;9.55;61.14
63306;BME280;50735;52.060;1.248;2022-11-28T02:33:06;100491.97;;;9.56;61.06
63306;BME280;50735;52.060;1.248;2022-11-28T02:35:43;100484.74;;;9.55;61.17
63306;BME280;50735;52.060;1.248;2022-11-28T02:38:20;100483.59;;;9.56;61.22
63306;BME280;50735;52.060;1.248;2022-11-28T02:40:53;100480.28;;;9.55;61.07
63306;BME280;50735;52.060;1.248;2022-11-28T02:43:30;100479.42;;;9.32;60.93
63306;BME280;50735;52.060;1.248;2022-11-28T02:46:04;100478.65;;;9.30;60.91
63306;BME280;50735;52.060;1.248;2022-11-28T02:48:38;100473.79;;;9.29;60.78
63306;BME280;50735;52.060;1.248;2022-11-28T02:51:11;100466.17;;;9.23;60.72
63306;BME280;50735;52.060;1.248;2022-11-28T02:53:42;100463.62;;;9.58;60.57
63306;BME280;50735;52.060;1.248;2022-11-28T02:56:10;100465.54;;;9.53;60.38
63306;BME280;50735;52.060;1.248;2022-11-28T02:58:38;100467.14;;;9.28;60.27
63306;BME280;50735;52.060;1.248;2022-11-28T03:01:06;100475.57;;;9.25;60.37
63306;BME280;50735;52.060;1.248;2022-11-28T03:03:48;100476.30;;;9.23;60.45
63306;BME280;50735;52.060;1.248;2022-11-28T03:06:26;100472.01;;;9.20;60.56
63306;BME280;50735;52.060;1.248;2022-11-28T03:09:05;100469.82;;;9.17;60.46
63306;BME280;50735;52.060;1.248;2022-11-28T03:11:46;100474.82;;;9.11;59.70
63306;BME280;50735;52.060;1.248;2022-11-28T03:14:23;100479.17;;;9.08;60.14
63306;BME280;50735;52.060;1.248;2022-11-28T03:16:57;100481.60;;;8.82;60.37
63306;BME280;50735;52.060;1.248;2022-11-28T03:19:31;100480.28;;;8.71;61.04
63306;BME280;50735;52.060;1.248;2022-11-28T03:22:06;100476.41;;;8.42;61.91
63306;BME280;50735;52.060;1.248;2022-11-28T03:24:40;100470.90;;;8.42;61.89
63306;BME280;50735;52.060;1.248;2022-11-28T03:27:14;100469.53;;;8.32;61.80
63306;BME280;50735;52.060;1.248;2022-11-28T03:29:45;100479.11;;;8.44;62.07
63306;BME280;50735;52.060;1.248;2022-11-28T03:32:18;100480.56;;;8.40;61.86
63306;BME280;50735;52.060;1.248;2022-11-28T03:34:51;100486.59;;;7.96;62.42
63306;BME280;50735;52.060;1.248;2022-11-28T03:37:22;100498.98;;;8.05;62.68
63306;BME280;50735;52.060;1.248;2022-11-28T03:39:56;100502.06;;;7.73;62.87
63306;BME280;50735;52.060;1.248;2022-11-28T03:42:27;100503.12;;;7.54;63.92
63306;BME280;50735;52.060;1.248;2022-11-28T03:44:59;100511.40;;;7.01;65.29
63306;BME280;50735;52.060;1.248;2022-11-28T03:47:31;100516.53;;;7.26;64.76
63306;BME280;50735;52.060;1.248;2022-11-28T03:50:03;100518.13;;;7.11;65.02
63306;BME280;50735;52.060;1.248;2022-11-28T03:52:33;100519.66;;;7.34;64.18
63306;BME280;50735;52.060;1.248;2022-11-28T03:55:04;100512.49;;;7.41;63.79
63306;BME280;50735;52.060;1.248;2022-11-28T03:57:36;100511.15;;;7.39;63.92
63306;BME280;50735;52.060;1.248;2022-11-28T04:00:06;100511.89;;;7.01;64.91
63306;BME280;50735;52.060;1.248;2022-11-28T04:02:39;100512.08;;;7.35;64.64
63306;BME280;50735;52.060;1.248;2022-11-28T04:05:18;100505.85;;;7.32;64.00
63306;BME280;50735;52.060;1.248;2022-11-28T04:07:52;100501.11;;;7.64;63.58
63306;BME280;50735;52.060;1.248;2022-11-28T04:10:27;100502.82;;;7.46;63.68
63306;BME280;50735;52.060;1.248;2022-11-28T04:13:00;100508.64;;;7.67;63.17
63306;BME280;50735;52.060;1.248;2022-11-28T04:15:34;100513.10;;;7.81;62.96
63306;BME280;50735;52.060;1.248;2022-11-28T04:18:10;100514.85;;;8.05;63.25
63306;BME280;50735;52.060;1.248;2022-11-28T04:20:45;100519.19;;;7.68;63.26
63306;BME280;50735;52.060;1.248;2022-11-28T04:23:17;100521.35;;;7.92;63.15
63306;BME280;50735;52.060;1.248;2022-11-28T04:25:51;100524.07;;;7.92;63.23
63306;BME280;50735;52.060;1.248;2022-11-28T04:28:22;100531.10;;;7.91;63.07
63306;BME280;50735;52.060;1.248;2022-11-28T04:30:50;100530.02;;;7.63;63.22
63306;BME280;50735;52.060;1.248;2022-11-28T04:33:19;100533.57;;;7.84;63.26
63306;BME280;50735;52.060;1.248;2022-11-28T04:35:50;100534.05;;;7.52;63.19
63306;BME280;50735;52.060;1.248;2022-11-28T04:38:20;100532.50;;;7.99;62.83
63306;BME280;50735;52.060;1.248;2022-11-28T04:40:51;100530.85;;;7.91;62.29
63306;BME280;50735;52.060;1.248;2022-11-28T04:43:23;100530.33;;;7.94;62.15
63306;BME280;50735;52.060;1.248;2022-11-28T04:45:56;100537.24;;;7.92;62.14
63306;BME280;50735;52.060;1.248;2022-11-28T04:48:25;100530.36;;;7.95;62.11
63306;BME280;50735;52.060;1.248;2022-11-28T04:51:00;100526.14;;;8.50;61.99
63306;BME280;50735;52.060;1.248;2022-11-28T04:53:32;100527.97;;;8.20;61.78
63306;BME280;50735;52.060;1.248;2022-11-28T04:56:05;100527.42;;;8.29;61.25
63306;BME280;50735;52.060;1.248;2022-11-28T04:58:35;100527.50;;;8.34;61.56
63306;BME280;50735;52.060;1.248;2022-11-28T05:01:07;100532.91;;;8.36;61.18
63306;BME280;50735;52.060;1.248;2022-11-28T05:03:36;100539.30;;;8.34;61.28
63306;BME280;50735;52.060;1.248;2022-11-28T05:06:05;100536.56;;;8.31;61.17
63306;BME280;50735;52.060;1.248;2022-11-28T05:08:33;100534.68;;;8.30;61.25
63306;BME280;50735;52.060;1.248;2022-11-28T05:11:00;100532.05;;;8.21;61.37
63306;BME280;50735;52.060;1.248;2022-11-28T05:13:27;100526.27;;;7.63;62.03
63306;BME280;50735;52.060;1.248;2022-11-28T05:15:54;100524.23;;;7.58;62.23
63306;BME280;50735;52.060;1.248;2022-11-28T05:18:20;100531.57;;;7.37;62.61
63306;BME280;50735;52.060;1.248;2022-11-28T05:20:47;100533.90;;;7.56;62.58
63306;BME280;50735;52.060;1.248;2022-11-28T05:23:13;100540.26;;;7.10;63.11
63306;BME280;50735;52.060;1.248;2022-11-28T05:25:40;100542.79;;;7.19;63.48
63306;BME280;50735;52.060;1.248;2022-11-28T05:28:07;100543.78;;;7.21;63.46
63306;BME280;50735;52.060;1.248;2022-11-28T05:30:34;100540.91;;;7.13;63.32
63306;BME280;50735;52.060;1.248;2022-11-28T05:33:01;100543.31;;;7.38;63.21
63306;BME280;50735;52.060;1.248;2022-11-28T05:35:28;100541.95;;;7.04;63.41
63306;BME280;50735;52.060;1.248;2022-11-28T05:37:54;100543.96;;;7.07;64.17
63306;BME280;50735;52.060;1.248;2022-11-28T05:40:21;100548.59;;;7.25;63.82
63306;BME280;50735;52.060;1.248;2022-11-28T05:42:48;100547.89;;;7.31;63.44
63306;BME280;50735;52.060;1.248;2022-11-28T05:45:15;100548.07;;;7.23;63.09
63306;BME280;50735;52.060;1.248;2022-11-28T05:47:42;100552.13;;;7.37;63.20
63306;BME280;50735;52.060;1.248;2022-11-28T05:50:09;100559.96;;;7.44;62.86
63306;BME280;50735;52.060;1.248;2022-11-28T05:52:36;100561.21;;;7.15;63.01
63306;BME280;50735;52.060;1.248;2022-11-28T05:55:03;100560.89;;;7.38;63.29
63306;BME280;50735;52.060;1.248;2022-11-28T05:57:30;100562.78;;;7.38;63.32
63306;BME280;50735;52.060;1.248;2022-11-28T05:59:57;100561.23;;;7.14;63.06
63306;BME280;50735;52.060;1.248;2022-11-28T06:02:24;100559.31;;;7.63;62.88
63306;BME280;50735;52.060;1.248;2022-11-28T06:04:51;100557.27;;;7.61;62.62
63306;BME280;50735;52.060;1.248;2022-11-28T06:07:18;100552.41;;;7.98;62.17
63306;BME280;50735;52.060;1.248;2022-11-28T06:09:44;100552.99;;;7.72;62.25
63306;BME280;50735;52.060;1.248;2022-11-28T06:12:11;100553.97;;;8.06;61.91
63306;BME280;50735;52.060;1.248;2022-11-28T06:14:38;100553.10;;;7.92;61.88
63306;BME280;50735;52.060;1.248;2022-11-28T06:17:05;100559.30;;;8.16;61.51
63306;BME280;50735;52.060;1.248;2022-11-28T06:19:32;100565.20;;;8.06;61.73
63306;BME280;50735;52.060;1.248;2022-11-28T06:21:58;100567.51;;;7.99;61.85
63306;BME280;50735;52.060;1.248;2022-11-28T06:24:25;100571.99;;;8.04;61.73
63306;BME280;50735;52.060;1.248;2022-11-28T06:26:52;100575.14;;;7.83;61.81
63306;BME280;50735;52.060;1.248;2022-11-28T06:29:18;100574.81;;;7.81;61.93
63306;BME280;50735;52.060;1.248;2022-11-28T06:31:45;100574.61;;;7.84;61.84
63306;BME280;50735;52.060;1.248;2022-11-28T06:34:12;100573.36;;;7.87;61.97
63306;BME280;50735;52.060;1.248;2022-11-28T06:36:39;100578.42;;;7.75;62.09
63306;BME280;50735;52.060;1.248;2022-11-28T06:39:05;100578.60;;;7.74;62.37
63306;BME280;50735;52.060;1.248;2022-11-28T06:41:32;100575.69;;;8.00;62.29
63306;BME280;50735;52.060;1.248;2022-11-28T06:44:00;100574.95;;;7.65;62.05
63306;BME280;50735;52.060;1.248;2022-11-28T06:46:26;100576.66;;;7.88;61.84
63306;BME280;50735;52.060;1.248;2022-11-28T06:48:53;100575.68;;;7.84;62.07
63306;BME280;50735;52.060;1.248;2022-11-28T06:51:20;100576.23;;;7.49;62.26
63306;BME280;50735;52.060;1.248;2022-11-28T06:53:47;100579.20;;;7.97;63.37
63306;BME280;50735;52.060;1.248;2022-11-28T06:56:16;100580.67;;;7.65;62.39
63306;BME280;50735;52.060;1.248;2022-11-28T06:58:44;100574.97;;;8.09;62.03
63306;BME280;50735;52.060;1.248;2022-11-28T07:01:13;100573.38;;;7.66;61.96
63306;BME280;50735;52.060;1.248;2022-11-28T07:03:40;100577.00;;;7.99;61.90
63306;BME280;50735;52.060;1.248;2022-11-28T07:06:08;100577.33;;;7.54;62.16
63306;BME280;50735;52.060;1.248;2022-11-28T07:08:35;100575.17;;;7.45;62.00
63306;BME280;50735;52.060;1.248;2022-11-28T07:11:08;100575.03;;;7.75;62.01
63306;BME280;50735;52.060;1.248;2022-11-28T07:13:35;100576.32;;;7.75;62.06
63306;BME280;50735;52.060;1.248;2022-11-28T07:16:03;100577.97;;;7.70;61.88
63306;BME280;50735;52.060;1.248;2022-11-28T07:18:30;100581.58;;;7.66;62.00
63306;BME280;50735;52.060;1.248;2022-11-28T07:20:56;100583.81;;;7.51;62.00
63306;BME280;50735;52.060;1.248;2022-11-28T07:23:23;100582.45;;;7.80;61.71
63306;BME280;50735;52.060;1.248;2022-11-28T07:25:49;100577.47;;;7.87;61.23
63306;BME280;50735;52.060;1.248;2022-11-28T07:28:16;100576.62;;;7.82;61.27
63306;BME280;50735;52.060;1.248;2022-11-28T07:30:43;100580.25;;;7.80;61.04
63306;BME280;50735;52.060;1.248;2022-11-28T07:33:10;100585.46;;;7.42;61.21
63306;BME280;50735;52.060;1.248;2022-11-28T07:35:38;100590.45;;;7.78;61.09
63306;BME280;50735;52.060;1.248;2022-11-28T07:38:05;100590.26;;;7.61;60.69
63306;BME280;50735;52.060;1.248;2022-11-28T07:40:31;100592.33;;;7.59;61.47
63306;BME280;50735;52.060;1.248;2022-11-28T07:42:58;100592.56;;;7.59;60.77
63306;BME280;50735;52.060;1.248;2022-11-28T07:45:25;100595.89;;;7.34;60.98
63306;BME280;50735;52.060;1.248;2022-11-28T07:47:51;100596.02;;;7.62;60.63
63306;BME280;50735;52.060;1.248;2022-11-28T07:50:18;100595.37;;;7.58;60.49
63306;BME280;50735;52.060;1.248;2022-11-28T07:52:45;100590.28;;;7.50;60.55
63306;BME280;50735;52.060;1.248;2022-11-28T07:55:12;100589.31;;;7.57;61.58
63306;BME280;50735;52.060;1.248;2022-11-28T07:57:39;100590.11;;;7.46;61.34
63306;BME280;50735;52.060;1.248;2022-11-28T08:00:07;100591.27;;;7.74;61.16
63306;BME280;50735;52.060;1.248;2022-11-28T08:02:34;100594.14;;;7.63;60.88
63306;BME280;50735;52.060;1.248;2022-11-28T08:05:01;100595.10;;;7.90;64.81
63306;BME280;50735;52.060;1.248;2022-11-28T08:07:28;100592.11;;;7.81;65.36
63306;BME280;50735;52.060;1.248;2022-11-28T08:09:55;100597.31;;;7.62;61.82
63306;BME280;50735;52.060;1.248;2022-11-28T08:12:22;100598.72;;;7.85;61.17
63306;BME280;50735;52.060;1.248;2022-11-28T08:14:49;100601.52;;;7.86;60.91
63306;BME280;50735;52.060;1.248;2022-11-28T08:17:16;100601.07;;;7.84;60.91
63306;BME280;50735;52.060;1.248;2022-11-28T08:19:43;100602.20;;;7.87;60.81
63306;BME280;50735;52.060;1.248;2022-11-28T08:22:10;100605.77;;;7.89;60.22
63306;BME280;50735;52.060;1.248;2022-11-28T08:24:37;100605.19;;;7.85;60.60
63306;BME280;50735;52.060;1.248;2022-11-28T08:27:04;100605.34;;;7.60;60.51
63306;BME280;50735;52.060;1.248;2022-11-28T08:29:31;100604.74;;;7.83;59.61
63306;BME280;50735;52.060;1.248;2022-11-28T08:31:58;100607.35;;;7.63;60.35
63306;BME280;50735;52.060;1.248;2022-11-28T08:34:24;100601.54;;;8.04;60.51
63306;BME280;50735;52.060;1.248;2022-11-28T08:36:51;100592.70;;;7.98;59.90
63306;BME280;50735;52.060;1.248;2022-11-28T08:39:17;100592.24;;;7.97;60.17
63306;BME280;50735;52.060;1.248;2022-11-28T08:41:44;100589.83;;;7.92;59.44
63306;BME280;50735;52.060;1.248;2022-11-28T08:44:12;100597.09;;;7.85;60.16
63306;BME280;50735;52.060;1.248;2022-11-28T08:46:38;100598.91;;;7.46;60.35
63306;BME280;50735;52.060;1.248;2022-11-28T08:49:05;100601.45;;;7.89;60.35
63306;BME280;50735;52.060;1.248;2022-11-28T08:51:32;100599.37;;;7.93;59.76
63306;BME280;50735;52.060;1.248;2022-11-28T08:53:59;100600.60;;;7.90;59.30
63306;BME280;50735;52.060;1.248;2022-11-28T08:56:25;100604.02;;;7.25;60.06
63306;BME280;50735;52.060;1.248;2022-11-28T08:58:52;100605.92;;;7.58;60.33
63306;BME280;50735;52.060;1.248;2022-11-28T09:01:20;100605.41;;;7.71;60.47
63306;BME280;50735;52.060;1.248;2022-11-28T09:03:48;100608.47;;;7.49;59.71
63306;BME280;50735;52.060;1.248;2022-11-28T09:06:16;100611.84;;;7.87;60.39
63306;BME280;50735;52.060;1.248;2022-11-28T09:08:43;100613.25;;;7.79;60.30
63306;BME280;50735;52.060;1.248;2022-11-28T09:11:14;100611.51;;;7.86;59.18
63306;BME280;50735;52.060;1.248;2022-11-28T09:13:43;100610.52;;;8.09;59.89
63306;BME280;50735;52.060;1.248;2022-11-28T09:16:10;100609.37;;;7.91;59.11
63306;BME280;50735;52.060;1.248;2022-11-28T09:18:37;100610.24;;;7.98;59.89
63306;BME280;50735;52.060;1.248;2022-11-28T09:21:07;100615.89;;;8.04;59.47
63306;BME280;50735;52.060;1.248;2022-11-28T09:23:34;100614.23;;;8.12;59.60
63306;BME280;50735;52.060;1.248;2022-11-28T09:26:05;100616.63;;;8.40;59.58
63306;BME280;50735;52.060;1.248;2022-11-28T09:28:32;100622.13;;;8.43;59.58
63306;BME280;50735;52.060;1.248;2022-11-28T09:30:59;100624.68;;;8.26;59.57
63306;BME280;50735;52.060;1.248;2022-11-28T09:33:27;100627.11;;;8.24;58.94
63306;BME280;50735;52.060;1.248;2022-11-28T09:35:53;100629.45;;;8.28;59.32
63306;BME280;50735;52.060;1.248;2022-11-28T09:38:20;100627.12;;;8.60;59.45
63306;BME280;50735;52.060;1.248;2022-11-28T09:40:48;100627.76;;;8.42;59.43
63306;BME280;50735;52.060;1.248;2022-11-28T09:43:17;100627.38;;;8.44;59.17
63306;BME280;50735;52.060;1.248;2022-11-28T09:45:49;100626.08;;;8.45;59.16
63306;BME280;50735;52.060;1.248;2022-11-28T09:48:24;100626.20;;;8.45;58.96
63306;BME280;50735;52.060;1.248;2022-11-28T09:50:56;100631.74;;;8.41;58.99
63306;BME280;50735;52.060;1.248;2022-11-28T09:53:29;100633.26;;;8.38;58.47
63306;BME280;50735;52.060;1.248;2022-11-28T09:56:04;100636.58;;;8.41;59.01
63306;BME280;50735;52.060;1.248;2022-11-28T09:58:40;100635.56;;;8.42;58.65
63306;BME280;50735;52.060;1.248;2022-11-28T10:01:15;100635.27;;;8.45;58.51
63306;BME280;50735;52.060;1.248;2022-11-28T10:03:47;100631.74;;;8.34;58.86
63306;BME280;50735;52.060;1.248;2022-11-28T10:06:19;100629.12;;;8.74;59.40
63306;BME280;50735;52.060;1.248;2022-11-28T10:08:58;100628.52;;;8.91;58.51
63306;BME280;50735;52.060;1.248;2022-11-28T10:11:41;100630.15;;;8.93;58.94
63306;BME280;50735;52.060;1.248;2022-11-28T10:14:23;100631.49;;;9.10;57.67
63306;BME280;50735;52.060;1.248;2022-11-28T10:16:59;100630.80;;;9.03;57.03
63306;BME280;50735;52.060;1.248;2022-11-28T10:19:32;100633.84;;;9.19;57.66
63306;BME280;50735;52.060;1.248;2022-11-28T10:22:02;100636.97;;;9.36;57.82
63306;BME280;50735;52.060;1.248;2022-11-28T10:24:36;100642.54;;;8.97;57.40
63306;BME280;50735;52.060;1.248;2022-11-28T10:27:05;100645.54;;;9.30;57.90
63306;BME280;50735;52.060;1.248;2022-11-28T10:29:38;100651.51;;;9.58;57.18
63306;BME280;50735;52.060;1.248;2022-11-28T10:32:13;100657.06;;;9.87;57.77
63306;BME280;50735;52.060;1.248;2022-11-28T10:34:44;100658.85;;;9.91;57.31
63306;BME280;50735;52.060;1.248;2022-11-28T10:37:19;100655.45;;;10.29;56.27
63306;BME280;50735;52.060;1.248;2022-11-28T10:39:47;100650.61;;;10.05;54.83
63306;BME280;50735;52.060;1.248;2022-11-28T10:42:18;100643.76;;;9.74;55.93
63306;BME280;50735;52.060;1.248;2022-11-28T10:45:02;100643.11;;;10.01;56.35
63306;BME280;50735;52.060;1.248;2022-11-28T10:47:52;100642.39;;;10.23;55.91
63306;BME280;50735;52.060;1.248;2022-11-28T10:50:30;100640.93;;;10.39;56.17
63306;BME280;50735;52.060;1.248;2022-11-28T10:53:04;100641.65;;;10.80;56.75
63306;BME280;50735;52.060;1.248;2022-11-28T10:55:41;100642.44;;;10.97;56.62
63306;BME280;50735;52.060;1.248;2022-11-28T10:58:15;100642.49;;;11.19;55.66
63306;BME280;50735;52.060;1.248;2022-11-28T11:00:50;100648.64;;;11.32;54.98
63306;BME280;50735;52.060;1.248;2022-11-28T11:03:26;100652.46;;;11.34;54.02
63306;BME280;50735;52.060;1.248;2022-11-28T11:05:54;100653.67;;;11.23;54.01
63306;BME280;50735;52.060;1.248;2022-11-28T11:08:22;100653.15;;;11.18;53.75
63306;BME280;50735;52.060;1.248;2022-11-28T11:10:51;100652.43;;;10.92;54.18
63306;BME280;50735;52.060;1.248;2022-11-28T11:13:24;100650.51;;;11.07;53.75
63306;BME280;50735;52.060;1.248;2022-11-28T11:15:57;100646.85;;;10.97;54.13
63306;BME280;50735;52.060;1.248;2022-11-28T11:18:27;100647.76;;;10.61;56.23
63306;BME280;50735;52.060;1.248;2022-11-28T11:21:07;100641.67;;;10.90;55.30
63306;BME280;50735;52.060;1.248;2022-11-28T11:23:35;100633.33;;;10.65;54.91
63306;BME280;50735;52.060;1.248;2022-11-28T11:26:04;100627.14;;;10.68;54.36
63306;BME280;50735;52.060;1.248;2022-11-28T11:28:40;100626.43;;;10.99;54.99
63306;BME280;50735;52.060;1.248;2022-11-28T11:31:16;100620.95;;;11.56;55.39
63306;BME280;50735;52.060;1.248;2022-11-28T11:33:43;100619.66;;;12.34;53.75
63306;BME280;50735;52.060;1.248;2022-11-28T11:36:25;100621.57;;;12.27;53.49
63306;BME280;50735;52.060;1.248;2022-11-28T11:39:04;100619.47;;;12.37;51.62
63306;BME280;50735;52.060;1.248;2022-11-28T11:41:32;100614.68;;;12.35;51.52
63306;BME280;50735;52.060;1.248;2022-11-28T11:44:25;100616.36;;;12.20;50.35
63306;BME280;50735;52.060;1.248;2022-11-28T11:46:54;100615.61;;;12.06;51.63
63306;BME280;50735;52.060;1.248;2022-11-28T11:49:27;100617.42;;;12.12;51.69
63306;BME280;50735;52.060;1.248;2022-11-28T11:51:55;100614.47;;;12.13;50.98
63306;BME280;50735;52.060;1.248;2022-11-28T11:54:23;100616.86;;;12.46;50.85
63306;BME280;50735;52.060;1.248;2022-11-28T11:56:50;100612.95;;;12.93;52.41
63306;BME280;50735;52.060;1.248;2022-11-28T11:59:20;100613.18;;;13.26;51.32
63306;BME280;50735;52.060;1.248;2022-11-28T12:01:54;100621.15;;;13.59;51.05
63306;BME280;50735;52.060;1.248;2022-11-28T12:04:27;100624.82;;;14.00;50.83
63306;BME280;50735;52.060;1.248;2022-11-28T12:06:57;100626.40;;;14.11;49.47
63306;BME280;50735;52.060;1.248;2022-11-28T12:09:28;100625.83;;;14.43;48.57
63306;BME280;50735;52.060;1.248;2022-11-28T12:12:00;100629.78;;;14.75;48.29
63306;BME280;50735;52.060;1.248;2022-11-28T12:14:32;100627.07;;;14.85;47.59
63306;BME280;50735;52.060;1.248;2022-11-28T12:17:09;100630.67;;;14.59;47.77
63306;BME280;50735;52.060;1.248;2022-11-28T12:19:45;100631.45;;;14.49;46.73
63306;BME280;50735;52.060;1.248;2022-11-28T12:22:19;100631.24;;;14.81;46.69
63306;BME280;50735;52.060;1.248;2022-11-28T12:25:00;100630.02;;;14.72;46.21
63306;BME280;50735;52.060;1.248;2022-11-28T12:27:41;100625.32;;;15.19;46.81
63306;BME280;50735;52.060;1.248;2022-11-28T12:30:23;100626.03;;;15.14;46.13
63306;BME280;50735;52.060;1.248;2022-11-28T12:33:02;100627.84;;;14.89;45.88
63306;BME280;50735;52.060;1.248;2022-11-28T12:35:38;100628.42;;;15.02;46.48
63306;BME280;50735;52.060;1.248;2022-11-28T12:38:18;100625.58;;;15.35;45.73
63306;BME280;50735;52.060;1.248;2022-11-28T12:41:03;100624.05;;;15.63;46.49
63306;BME280;50735;52.060;1.248;2022-11-28T12:43:43;100624.27;;;15.12;45.84
63306;BME280;50735;52.060;1.248;2022-11-28T12:46:20;100624.07;;;14.92;46.52
63306;BME280;50735;52.060;1.248;2022-11-28T12:49:02;100628.61;;;14.57;46.22
63306;BME280;50735;52.060;1.248;2022-11-28T12:51:42;100627.29;;;14.70;46.38
63306;BME280;50735;52.060;1.248;2022-11-28T12:54:30;100622.84;;;14.85;47.09
63306;BME280;50735;52.060;1.248;2022-11-28T12:57:06;100622.49;;;15.23;46.09
63306;BME280;50735;52.060;1.248;2022-11-28T12:59:44;100619.04;;;15.54;45.80
63306;BME280;50735;52.060;1.248;2022-11-28T13:02:23;100618.86;;;15.61;46.38
63306;BME280;50735;52.060;1.248;2022-11-28T13:05:02;100621.95;;;15.66;45.65
63306;BME280;50735;52.060;1.248;2022-11-28T13:07:39;100627.01;;;15.68;45.46
63306;BME280;50735;52.060;1.248;2022-11-28T13:10:12;100626.32;;;15.64;45.06
63306;BME280;50735;52.060;1.248;2022-11-28T13:12:46;100627.96;;;15.39;44.69
63306;BME280;50735;52.060;1.248;2022-11-28T13:15:22;100621.47;;;15.75;45.54
63306;BME280;50735;52.060;1.248;2022-11-28T13:17:56;100613.89;;;15.85;45.54